createdAt,value
2022-10-05T00:01:35.700Z,68.09
2022-10-05T00:06:37.377Z,68.54
2022-10-05T00:11:39.027Z,68.72
2022-10-05T00:16:40.685Z,68.81
2022-10-05T00:21:42.396Z,69.21
2022-10-05T00:26:44.363Z,68.56
2022-10-05T00:31:46.427Z,68.25
2022-10-05T00:36:48.474Z,68.14
2022-10-05T00:42:11.181Z,68.47
2022-10-05T00:47:15.689Z,68.28
2022-10-05T00:52:50.163Z,68.36
2022-10-05T00:58:28.761Z,68.38
2022-10-05T01:03:46.512Z,68.40
2022-10-05T01:08:51.198Z,68.56
2022-10-05T01:14:04.913Z,68.67
2022-10-05T01:19:20.202Z,68.88
2022-10-05T01:24:30.973Z,69.15
2022-10-05T01:29:41.462Z,68.86
2022-10-05T01:35:07.995Z,69.16
2022-10-05T01:40:48.101Z,69.18
2022-10-05T01:45:58.585Z,69.34
2022-10-05T01:51:18.956Z,69.25
2022-10-05T01:56:29.541Z,69.18
2022-10-05T02:01:55.588Z,68.68
2022-10-05T02:06:58.774Z,68.36
2022-10-05T02:12:08.160Z,68.84
2022-10-05T02:17:35.332Z,68.71
2022-10-05T02:22:46.496Z,68.80
2022-10-05T02:27:55.541Z,68.67
2022-10-05T02:33:29.875Z,68.36
2022-10-05T02:39:05.465Z,68.57
2022-10-05T02:44:16.787Z,68.83
2022-10-05T02:49:49.291Z,68.84
2022-10-05T02:55:20.828Z,68.80
2022-10-05T03:00:25.609Z,68.28
2022-10-05T03:05:54.057Z,68.53
2022-10-05T03:11:04.902Z,69.00
2022-10-05T03:16:24.800Z,69.30
2022-10-05T03:21:45.132Z,69.01
2022-10-05T03:26:58.946Z,69.15
2022-10-05T03:32:09.679Z,69.06
2022-10-05T03:37:21.352Z,69.55
2022-10-05T03:42:41.589Z,69.33
2022-10-05T03:48:16.647Z,69.07
2022-10-05T03:53:22.100Z,69.34
2022-10-05T03:58:41.227Z,69.01
2022-10-05T04:03:57.255Z,69.06
2022-10-05T04:09:31.811Z,68.78
2022-10-05T04:14:46.748Z,68.88
2022-10-05T04:19:59.128Z,68.73
2022-10-05T04:25:14.753Z,68.49
2022-10-05T04:30:20.453Z,68.66
2022-10-05T04:35:30.861Z,68.61
2022-10-05T04:40:50.201Z,68.06
2022-10-05T04:46:10.127Z,68.91
2022-10-05T04:51:29.796Z,68.39
2022-10-05T04:56:39.028Z,68.21
2022-10-05T05:02:16.274Z,68.40
2022-10-05T05:07:36.643Z,68.75
2022-10-05T05:13:16.630Z,68.80
2022-10-05T05:18:39.801Z,68.88
2022-10-05T05:23:49.937Z,68.83
2022-10-05T05:29:05.864Z,68.55
2022-10-05T05:34:29.110Z,68.79
2022-10-05T05:39:52.601Z,68.59
2022-10-05T05:44:58.002Z,68.39
2022-10-05T05:50:32.414Z,68.38
2022-10-05T05:55:45.007Z,67.94
2022-10-05T06:00:52.634Z,67.90
2022-10-05T06:06:01.807Z,67.78
2022-10-05T06:11:11.261Z,67.60
2022-10-05T06:16:12.929Z,67.91
2022-10-05T06:21:25.339Z,67.55
2022-10-05T06:26:49.069Z,67.50
2022-10-05T06:32:06.148Z,67.44
2022-10-05T06:37:17.941Z,67.42
2022-10-05T06:42:19.625Z,67.17
2022-10-05T06:47:35.034Z,66.44
2022-10-05T06:52:58.251Z,66.39
2022-10-05T06:58:37.665Z,66.29
2022-10-05T07:04:07.463Z,66.17
2022-10-05T07:09:14.966Z,66.09
2022-10-05T07:14:52.118Z,65.85
2022-10-05T07:20:15.261Z,64.70
2022-10-05T07:25:38.559Z,64.96
2022-10-05T07:31:09.760Z,64.43
2022-10-05T07:37:08.665Z,64.31
2022-10-05T07:42:19.321Z,64.01
2022-10-05T07:47:50.040Z,64.24
2022-10-05T07:53:21.999Z,63.37
2022-10-05T07:59:06.192Z,62.03
2022-10-05T08:04:35.203Z,62.01
2022-10-05T08:10:31.995Z,61.82
2022-10-05T08:16:18.630Z,61.49
2022-10-05T08:22:18.919Z,61.65
2022-10-05T08:27:26.625Z,61.54
2022-10-05T08:32:34.967Z,61.66
2022-10-05T08:37:41.580Z,61.61
2022-10-05T08:43:08.942Z,61.80
2022-10-05T08:48:38.585Z,61.16
2022-10-05T08:54:07.692Z,60.60
2022-10-05T08:59:15.433Z,60.94
2022-10-05T09:04:39.982Z,60.41
2022-10-05T09:10:11.726Z,60.37
2022-10-05T09:15:32.124Z,59.92
2022-10-05T09:20:50.986Z,59.54
2022-10-05T09:26:27.667Z,59.47
2022-10-05T09:31:47.455Z,59.52
2022-10-05T09:36:55.439Z,58.88
2022-10-05T09:42:44.685Z,57.98
2022-10-05T09:48:05.078Z,57.79
2022-10-05T09:53:40.934Z,58.24
2022-10-05T09:59:08.628Z,58.13
2022-10-05T10:04:26.867Z,58.42
2022-10-05T10:09:52.740Z,57.14
2022-10-05T10:15:28.446Z,55.96
2022-10-05T10:21:05.579Z,56.66
2022-10-05T10:26:19.029Z,56.16
2022-10-05T10:31:35.842Z,54.82
2022-10-05T10:37:13.961Z,56.11
2022-10-05T10:42:34.411Z,55.24
2022-10-05T10:47:36.094Z,55.22
2022-10-05T10:52:56.246Z,54.96
2022-10-05T10:58:35.029Z,54.48
2022-10-05T11:04:13.829Z,55.03
2022-10-05T11:09:25.821Z,54.64
2022-10-05T11:14:45.643Z,54.32
2022-10-05T11:20:04.158Z,54.51
2022-10-05T11:25:37.922Z,53.75
2022-10-05T11:31:02.503Z,53.47
2022-10-05T11:36:25.859Z,52.87
2022-10-05T11:41:45.725Z,53.30
2022-10-05T11:47:04.714Z,53.46
2022-10-05T11:52:13.107Z,52.91
2022-10-05T11:57:20.042Z,52.88
2022-10-05T12:02:55.473Z,52.56
2022-10-05T12:08:09.071Z,51.57
2022-10-05T12:13:53.498Z,51.09
2022-10-05T12:19:17.691Z,51.61
2022-10-05T12:24:26.836Z,50.94
2022-10-05T12:29:53.669Z,50.90
2022-10-05T12:35:11.674Z,51.13
2022-10-05T12:40:23.680Z,51.09
2022-10-05T12:45:43.418Z,50.23
2022-10-05T12:50:56.827Z,50.53
2022-10-05T12:56:09.420Z,51.19
2022-10-05T13:01:43.144Z,50.74
2022-10-05T13:07:22.916Z,50.28
2022-10-05T13:12:36.049Z,50.34
2022-10-05T13:17:50.063Z,50.28
2022-10-05T13:23:14.895Z,50.54
2022-10-05T13:28:23.225Z,49.84
2022-10-05T13:33:33.391Z,49.64
2022-10-05T13:39:13.425Z,48.90
2022-10-05T13:44:35.262Z,48.92
2022-10-05T13:50:02.314Z,48.27
2022-10-05T13:55:19.235Z,47.59
2022-10-05T14:00:26.257Z,48.22
2022-10-05T14:05:30.772Z,47.67
2022-10-05T14:10:39.023Z,47.83
2022-10-05T14:15:42.424Z,47.82
2022-10-05T14:21:01.729Z,47.01
2022-10-05T14:26:04.419Z,47.13
2022-10-05T14:31:14.976Z,47.24
2022-10-05T14:36:35.081Z,45.92
2022-10-05T14:41:37.613Z,47.32
2022-10-05T14:46:52.102Z,47.11
2022-10-05T14:51:55.850Z,47.54
2022-10-05T14:57:06.817Z,47.87
2022-10-05T15:02:45.313Z,47.60
2022-10-05T15:07:51.374Z,48.03
2022-10-05T15:12:55.668Z,48.65
2022-10-05T15:18:15.469Z,48.53
2022-10-05T15:23:35.329Z,49.44
2022-10-05T15:28:41.694Z,49.52
2022-10-05T15:34:12.433Z,49.17
2022-10-05T15:39:20.001Z,49.08
2022-10-05T15:44:52.342Z,49.22
2022-10-05T15:50:21.203Z,49.29
2022-10-05T15:55:35.386Z,49.99
2022-10-05T16:00:48.004Z,50.41
2022-10-05T16:06:37.613Z,50.84
2022-10-05T16:12:01.538Z,51.31
2022-10-05T16:17:05.765Z,52.14
2022-10-05T16:22:33.540Z,52.59
2022-10-05T16:27:35.147Z,53.21
2022-10-05T16:32:43.204Z,53.71
2022-10-05T16:37:57.764Z,54.10
2022-10-05T16:43:21.092Z,54.58
2022-10-05T16:48:26.254Z,55.49
2022-10-05T16:53:37.816Z,55.80
2022-10-05T16:58:45.238Z,56.24
2022-10-05T17:04:16.564Z,57.12
2022-10-05T17:09:53.499Z,58.06
2022-10-05T17:15:10.114Z,58.44
2022-10-05T17:20:50.979Z,58.86
2022-10-05T17:26:32.794Z,59.22
2022-10-05T17:32:09.914Z,59.80
2022-10-05T17:37:32.057Z,60.27
2022-10-05T17:42:34.285Z,60.56
2022-10-05T17:47:54.470Z,61.20
2022-10-05T17:53:53.554Z,62.05
2022-10-05T17:58:58.902Z,62.32
2022-10-05T18:04:12.422Z,62.71
2022-10-05T18:09:14.009Z,62.53
2022-10-05T18:14:19.704Z,63.05
2022-10-05T18:19:22.784Z,63.19
2022-10-05T18:24:38.934Z,63.49
2022-10-05T18:30:13.881Z,63.67
2022-10-05T18:35:33.434Z,63.93
2022-10-05T18:40:41.122Z,63.90
2022-10-05T18:46:23.272Z,64.09
2022-10-05T18:51:35.863Z,64.07
2022-10-05T18:56:51.854Z,64.31
2022-10-05T19:02:11.045Z,64.41
2022-10-05T19:07:48.216Z,64.81
2022-10-05T19:13:14.857Z,64.75
2022-10-05T19:18:39.868Z,65.11
2022-10-05T19:24:11.070Z,65.05
2022-10-05T19:29:12.522Z,65.99
2022-10-05T19:34:19.985Z,64.94
2022-10-05T19:39:50.641Z,65.65
2022-10-05T19:45:38.963Z,65.67
2022-10-05T19:50:53.668Z,65.54
2022-10-05T19:55:55.762Z,65.43
2022-10-05T20:01:01.159Z,65.88
2022-10-05T20:06:07.513Z,66.31
2022-10-05T20:11:11.968Z,66.45
2022-10-05T20:16:35.360Z,66.60
2022-10-05T20:21:38.124Z,66.75
2022-10-05T20:27:06.681Z,67.10
2022-10-05T20:32:14.237Z,67.63
2022-10-05T20:37:18.189Z,67.67
2022-10-05T20:42:20.993Z,67.44
2022-10-05T20:47:23.178Z,67.56
2022-10-05T20:52:24.768Z,67.83
2022-10-05T20:57:26.703Z,68.09
2022-10-05T21:02:28.757Z,68.42
2022-10-05T21:07:30.389Z,68.52
2022-10-05T21:12:34.000Z,68.15
2022-10-05T21:17:38.124Z,67.76
2022-10-05T21:22:39.711Z,68.39
2022-10-05T21:27:41.354Z,68.45
2022-10-05T21:32:44.683Z,67.88
2022-10-05T21:37:46.595Z,67.82
2022-10-05T21:42:48.162Z,67.57
2022-10-05T21:47:50.053Z,67.21
2022-10-05T21:52:51.996Z,66.88
2022-10-05T21:57:56.825Z,66.80
2022-10-05T22:02:58.441Z,66.39
2022-10-05T22:08:00.302Z,66.47
2022-10-05T22:13:04.678Z,65.31
2022-10-05T22:18:06.370Z,65.07
2022-10-05T22:23:07.957Z,64.82
2022-10-05T22:28:13.553Z,64.90
2022-10-05T22:33:15.219Z,64.04
2022-10-05T22:38:16.824Z,63.64
2022-10-05T22:43:18.453Z,63.33
2022-10-05T22:48:20.077Z,62.72
2022-10-05T22:53:21.659Z,62.22
2022-10-05T22:58:23.377Z,62.01
2022-10-05T23:03:25.153Z,61.91
2022-10-05T23:08:27.252Z,61.73
2022-10-05T23:13:29.631Z,61.70
2022-10-05T23:18:31.897Z,61.49
2022-10-05T23:23:36.265Z,61.10
2022-10-05T23:28:40.281Z,61.27
2022-10-05T23:33:42.085Z,61.39
2022-10-05T23:38:44.476Z,62.09
2022-10-05T23:43:46.693Z,62.25
2022-10-05T23:48:50.361Z,62.50
2022-10-05T23:53:52.013Z,62.46
2022-10-05T23:58:53.636Z,62.52
